createdAt,value
2019-02-19T00:00:11.260Z,77.10
2019-02-19T00:02:40.832Z,77.13
2019-02-19T00:05:10.438Z,79.93
2019-02-19T00:07:39.867Z,81.99
2019-02-19T00:10:09.319Z,82.18
2019-02-19T00:12:38.726Z,82.39
2019-02-19T00:15:08.731Z,82.68
2019-02-19T00:17:38.274Z,82.74
2019-02-19T00:20:08.007Z,82.42
2019-02-19T00:22:37.880Z,81.85
2019-02-19T00:25:07.314Z,82.01
2019-02-19T00:27:36.895Z,82.18
2019-02-19T00:30:06.940Z,82.38
2019-02-19T00:32:36.447Z,82.25
2019-02-19T00:35:06.676Z,82.28
2019-02-19T00:37:36.151Z,78.85
2019-02-19T00:40:06.386Z,78.78
2019-02-19T00:42:35.840Z,78.59
2019-02-19T00:45:06.234Z,78.97
2019-02-19T00:47:35.991Z,79.61
2019-02-19T00:50:07.245Z,81.78
2019-02-19T00:52:36.761Z,82.22
2019-02-19T00:55:06.908Z,82.39
2019-02-19T00:57:36.531Z,82.22
2019-02-19T01:00:08.970Z,82.61
2019-02-19T01:02:38.798Z,82.75
2019-02-19T01:05:08.386Z,82.87
2019-02-19T01:07:38.037Z,83.28
2019-02-19T01:10:07.609Z,83.11
2019-02-19T01:12:37.092Z,82.92
2019-02-19T01:15:09.333Z,82.72
2019-02-19T01:17:38.892Z,82.88
2019-02-19T01:20:09.408Z,82.60
2019-02-19T01:22:38.953Z,82.29
2019-02-19T01:25:08.872Z,82.39
2019-02-19T01:27:38.581Z,82.27
2019-02-19T01:30:09.991Z,81.92
2019-02-19T01:32:39.657Z,81.19
2019-02-19T01:35:09.435Z,81.04
2019-02-19T01:37:39.024Z,81.10
2019-02-19T01:40:09.476Z,81.22
2019-02-19T01:42:41.319Z,80.82
2019-02-19T01:45:10.812Z,82.04
2019-02-19T01:47:40.549Z,82.37
2019-02-19T01:50:10.135Z,82.89
2019-02-19T01:52:39.707Z,83.18
2019-02-19T01:55:09.418Z,83.05
2019-02-19T01:57:38.876Z,82.58
2019-02-19T02:00:10.612Z,82.84
2019-02-19T02:02:40.265Z,82.80
2019-02-19T02:05:09.870Z,82.43
2019-02-19T02:07:39.697Z,82.62
2019-02-19T02:10:09.293Z,82.70
2019-02-19T02:12:38.805Z,82.79
2019-02-19T02:15:08.454Z,82.77
2019-02-19T02:17:37.922Z,82.91
2019-02-19T02:20:08.146Z,82.93
2019-02-19T02:22:37.812Z,82.95
2019-02-19T02:25:07.602Z,82.84
2019-02-19T02:27:37.173Z,82.77
2019-02-19T02:30:07.854Z,83.01
2019-02-19T02:32:37.443Z,83.06
2019-02-19T02:35:06.886Z,82.32
2019-02-19T02:37:36.445Z,81.87
2019-02-19T02:40:07.597Z,81.97
2019-02-19T02:42:37.008Z,81.82
2019-02-19T02:45:06.681Z,81.69
2019-02-19T02:47:36.268Z,81.91
2019-02-19T02:50:05.815Z,82.31
2019-02-19T02:52:35.255Z,82.84
2019-02-19T02:55:05.406Z,83.19
2019-02-19T02:57:35.208Z,83.22
2019-02-19T03:00:07.367Z,83.33
2019-02-19T03:02:36.786Z,83.42
2019-02-19T03:05:06.621Z,83.32
2019-02-19T03:07:43.464Z,83.56
2019-02-19T03:10:12.915Z,83.60
2019-02-19T03:12:42.689Z,83.87
2019-02-19T03:15:12.702Z,83.84
2019-02-19T03:17:42.189Z,83.75
2019-02-19T03:20:11.721Z,83.77
2019-02-19T03:22:41.550Z,83.66
2019-02-19T03:25:11.041Z,83.81
2019-02-19T03:27:40.495Z,83.60
2019-02-19T03:30:11.203Z,83.70
2019-02-19T03:32:40.831Z,83.45
2019-02-19T03:35:10.248Z,83.36
2019-02-19T03:37:39.787Z,83.24
2019-02-19T03:40:09.288Z,83.00
2019-02-19T03:42:38.818Z,83.01
2019-02-19T03:45:09.886Z,83.23
2019-02-19T03:47:39.576Z,82.92
2019-02-19T03:50:09.269Z,83.03
2019-02-19T03:52:38.899Z,83.26
2019-02-19T03:55:08.601Z,83.34
2019-02-19T03:57:38.039Z,83.18
2019-02-19T04:00:08.870Z,83.01
2019-02-19T04:02:38.349Z,82.92
2019-02-19T04:05:07.887Z,82.52
2019-02-19T04:07:37.548Z,82.39
2019-02-19T04:10:08.725Z,82.62
2019-02-19T04:12:38.275Z,82.99
2019-02-19T04:15:08.341Z,83.51
2019-02-19T04:17:38.101Z,83.91
2019-02-19T04:20:08.821Z,83.94
2019-02-19T04:22:38.444Z,84.10
2019-02-19T04:25:08.125Z,84.07
2019-02-19T04:27:37.648Z,84.13
2019-02-19T04:30:08.655Z,84.11
2019-02-19T04:32:38.243Z,83.57
2019-02-19T04:35:08.061Z,82.86
2019-02-19T04:37:37.534Z,82.86
2019-02-19T04:40:08.327Z,83.14
2019-02-19T04:42:37.868Z,83.32
2019-02-19T04:45:07.359Z,83.49
2019-02-19T04:47:36.838Z,83.49
2019-02-19T04:50:07.787Z,83.43
2019-02-19T04:52:37.265Z,83.14
2019-02-19T04:55:07.316Z,82.87
2019-02-19T04:57:37.706Z,82.71
2019-02-19T05:00:10.780Z,82.73
2019-02-19T05:02:40.281Z,82.96
2019-02-19T05:05:09.824Z,82.76
2019-02-19T05:07:39.337Z,83.08
2019-02-19T05:10:09.035Z,83.14
2019-02-19T05:12:38.489Z,83.12
2019-02-19T05:15:10.508Z,83.10
2019-02-19T05:17:40.126Z,83.06
2019-02-19T05:20:09.955Z,82.99
2019-02-19T05:22:39.943Z,82.98
2019-02-19T05:25:11.398Z,83.25
2019-02-19T05:27:41.141Z,83.47
2019-02-19T05:30:13.502Z,83.74
2019-02-19T05:32:42.947Z,83.85
2019-02-19T05:35:14.816Z,83.61
2019-02-19T05:37:44.307Z,83.96
2019-02-19T05:40:13.879Z,83.96
2019-02-19T05:42:43.480Z,84.37
2019-02-19T05:45:13.058Z,84.26
2019-02-19T05:47:42.769Z,83.97
2019-02-19T05:50:12.277Z,83.63
2019-02-19T05:52:41.768Z,83.56
2019-02-19T05:55:11.302Z,83.78
2019-02-19T05:57:40.945Z,83.65
2019-02-19T06:00:12.388Z,83.62
2019-02-19T06:02:41.860Z,83.86
2019-02-19T06:05:11.448Z,83.63
2019-02-19T06:07:41.206Z,83.86
2019-02-19T06:10:12.626Z,84.06
2019-02-19T06:12:42.076Z,83.71
2019-02-19T06:15:12.249Z,83.34
2019-02-19T06:17:41.946Z,83.54
2019-02-19T06:20:11.507Z,83.65
2019-02-19T06:22:40.970Z,83.60
2019-02-19T06:25:10.726Z,83.62
2019-02-19T06:27:40.411Z,83.39
2019-02-19T06:30:12.599Z,83.51
2019-02-19T06:32:42.209Z,83.23
2019-02-19T06:35:11.720Z,83.12
2019-02-19T06:37:41.221Z,82.95
2019-02-19T06:40:26.891Z,82.88
2019-02-19T06:42:56.583Z,82.79
2019-02-19T06:45:26.033Z,82.26
2019-02-19T06:47:55.468Z,81.68
2019-02-19T06:50:25.019Z,81.13
2019-02-19T06:52:54.922Z,81.11
2019-02-19T06:55:24.387Z,80.54
2019-02-19T06:57:53.843Z,80.18
2019-02-19T07:00:24.517Z,77.84
2019-02-19T07:03:13.941Z,76.28
2019-02-19T07:05:43.563Z,74.85
2019-02-19T07:08:13.077Z,73.22
2019-02-19T07:10:42.645Z,71.71
2019-02-19T07:13:13.042Z,70.04
2019-02-19T07:15:42.502Z,68.76
2019-02-19T07:18:12.215Z,69.63
2019-02-19T07:20:41.673Z,71.33
2019-02-19T07:23:11.324Z,72.14
2019-02-19T07:25:40.755Z,71.44
2019-02-19T07:28:10.254Z,71.08
2019-02-19T07:30:40.587Z,69.81
2019-02-19T07:33:10.170Z,65.76
2019-02-19T07:35:39.667Z,66.22
2019-02-19T07:38:09.098Z,65.51
2019-02-19T07:40:38.676Z,66.17
2019-02-19T07:43:08.485Z,63.47
2019-02-19T07:45:37.794Z,64.47
2019-02-19T07:48:07.551Z,65.26
2019-02-19T07:50:36.963Z,68.77
2019-02-19T07:53:06.606Z,69.55
2019-02-19T07:55:36.294Z,68.88
2019-02-19T07:58:05.847Z,66.99
2019-02-19T08:00:35.289Z,66.60
2019-02-19T08:03:05.157Z,63.99
2019-02-19T08:05:34.619Z,63.45
2019-02-19T08:08:04.260Z,64.19
2019-02-19T08:10:34.122Z,64.54
2019-02-19T08:13:03.717Z,65.56
2019-02-19T08:15:33.421Z,62.73
2019-02-19T08:18:02.818Z,61.12
2019-02-19T08:20:32.327Z,60.80
2019-02-19T08:23:02.298Z,61.13
2019-02-19T08:25:31.946Z,60.83
2019-02-19T08:28:01.737Z,60.09
2019-02-19T08:30:31.160Z,57.75
2019-02-19T08:33:00.627Z,58.46
2019-02-19T08:35:30.156Z,56.22
2019-02-19T08:37:59.662Z,56.48
2019-02-19T08:40:29.151Z,53.35
2019-02-19T08:42:58.762Z,54.78
2019-02-19T08:45:28.277Z,52.90
2019-02-19T08:47:58.099Z,52.33
2019-02-19T08:50:27.580Z,51.73
2019-02-19T08:52:57.071Z,51.60
2019-02-19T08:55:26.834Z,53.72
2019-02-19T08:57:56.288Z,51.34
2019-02-19T09:00:25.874Z,51.74
2019-02-19T09:02:55.566Z,51.36
2019-02-19T09:05:25.089Z,51.54
2019-02-19T09:07:54.766Z,51.06
2019-02-19T09:10:24.239Z,51.17
2019-02-19T09:12:53.845Z,50.61
2019-02-19T09:15:23.372Z,51.35
2019-02-19T09:17:53.343Z,50.36
2019-02-19T09:20:22.952Z,49.79
2019-02-19T09:22:52.396Z,49.95
2019-02-19T09:25:21.843Z,49.57
2019-02-19T09:27:51.283Z,51.08
2019-02-19T09:30:21.031Z,49.85
2019-02-19T09:32:50.547Z,50.62
2019-02-19T09:35:20.066Z,48.74
2019-02-19T09:37:49.535Z,48.52
2019-02-19T09:40:19.344Z,48.96
2019-02-19T09:42:49.586Z,48.60
2019-02-19T09:45:19.070Z,49.04
2019-02-19T09:47:48.657Z,48.47
2019-02-19T09:50:18.141Z,47.94
2019-02-19T09:52:47.761Z,48.24
2019-02-19T09:55:17.420Z,45.91
2019-02-19T09:57:46.945Z,48.20
2019-02-19T10:00:16.532Z,48.14
2019-02-19T10:02:46.037Z,46.21
2019-02-19T10:05:15.630Z,47.29
2019-02-19T10:07:45.051Z,46.02
2019-02-19T10:10:19.978Z,47.25
2019-02-19T10:12:49.527Z,46.03
2019-02-19T10:15:19.316Z,45.84
2019-02-19T10:17:48.851Z,45.85
2019-02-19T10:20:18.270Z,45.96
2019-02-19T10:22:47.744Z,45.46
2019-02-19T10:25:17.275Z,45.06
2019-02-19T10:27:46.792Z,44.17
2019-02-19T10:30:19.040Z,44.43
2019-02-19T10:32:48.609Z,44.20
2019-02-19T10:35:18.441Z,44.30
2019-02-19T10:37:48.151Z,44.35
2019-02-19T10:40:18.737Z,44.19
2019-02-19T10:42:48.581Z,44.41
2019-02-19T10:45:20.820Z,44.51
2019-02-19T10:47:50.581Z,43.74
2019-02-19T10:50:20.349Z,43.38
2019-02-19T10:52:51.644Z,41.77
2019-02-19T10:55:21.352Z,42.89
2019-02-19T10:57:51.019Z,43.15
2019-02-19T11:00:22.790Z,41.82
2019-02-19T11:02:52.383Z,42.88
2019-02-19T11:05:21.920Z,42.62
2019-02-19T11:07:51.503Z,42.40
2019-02-19T11:10:21.130Z,43.42
2019-02-19T11:12:50.550Z,42.80
2019-02-19T11:15:20.080Z,43.44
2019-02-19T11:17:49.562Z,43.95
2019-02-19T11:20:21.197Z,42.62
2019-02-19T11:22:51.002Z,43.68
2019-02-19T11:25:20.640Z,43.73
2019-02-19T11:27:50.333Z,43.79
2019-02-19T11:30:20.736Z,43.19
2019-02-19T11:32:50.324Z,42.79
2019-02-19T11:35:20.069Z,42.82
2019-02-19T11:37:49.775Z,43.48
2019-02-19T11:40:19.511Z,43.88
2019-02-19T11:42:49.521Z,42.64
2019-02-19T11:45:19.716Z,44.80
2019-02-19T11:47:49.304Z,43.35
2019-02-19T11:50:18.855Z,43.16
2019-02-19T11:52:48.553Z,42.86
2019-02-19T11:55:19.271Z,42.08
2019-02-19T11:57:48.750Z,42.08
2019-02-19T12:00:36.480Z,41.42
2019-02-19T12:03:06.164Z,41.54
2019-02-19T12:05:35.759Z,42.29
2019-02-19T12:08:05.350Z,40.23
2019-02-19T12:10:35.062Z,41.31
2019-02-19T12:13:04.659Z,40.32
2019-02-19T12:15:35.561Z,38.85
2019-02-19T12:18:05.237Z,39.57
2019-02-19T12:20:34.766Z,38.23
2019-02-19T12:23:04.554Z,36.94
2019-02-19T12:25:34.301Z,37.01
2019-02-19T12:28:04.208Z,36.73
2019-02-19T12:30:33.997Z,37.40
2019-02-19T12:33:03.724Z,36.97
2019-02-19T12:35:33.334Z,36.85
2019-02-19T12:38:02.845Z,36.20
2019-02-19T12:40:32.548Z,36.83
2019-02-19T12:43:02.156Z,36.21
2019-02-19T12:45:31.934Z,36.87
2019-02-19T12:48:01.547Z,37.01
2019-02-19T12:50:31.217Z,37.08
2019-02-19T12:53:00.792Z,37.50
2019-02-19T12:55:30.496Z,38.55
2019-02-19T12:58:00.179Z,39.62
2019-02-19T13:00:29.699Z,39.56
2019-02-19T13:02:59.308Z,39.84
2019-02-19T13:05:28.976Z,39.95
2019-02-19T13:07:58.436Z,40.28
2019-02-19T13:10:28.208Z,41.36
2019-02-19T13:12:57.681Z,42.30
2019-02-19T13:15:27.261Z,42.85
2019-02-19T13:17:56.967Z,42.31
2019-02-19T13:20:26.572Z,41.53
2019-02-19T13:22:56.037Z,42.49
2019-02-19T13:25:27.109Z,42.26
2019-02-19T13:27:56.602Z,44.31
2019-02-19T13:30:26.435Z,45.71
2019-02-19T13:32:56.250Z,46.18
2019-02-19T13:35:25.819Z,46.38
2019-02-19T13:37:55.457Z,46.71
2019-02-19T13:40:25.168Z,48.14
2019-02-19T13:42:54.598Z,49.96
2019-02-19T13:45:24.470Z,50.63
2019-02-19T13:47:53.959Z,50.96
2019-02-19T13:50:28.868Z,51.16
2019-02-19T13:53:09.239Z,51.13
2019-02-19T13:55:43.215Z,50.75
2019-02-19T13:58:12.910Z,51.61
2019-02-19T14:00:44.232Z,51.37
2019-02-19T14:03:13.783Z,51.72
2019-02-19T14:05:43.332Z,52.49
2019-02-19T14:08:14.801Z,52.79
2019-02-19T14:10:43.936Z,53.25
2019-02-19T14:13:13.583Z,53.74
2019-02-19T14:15:47.965Z,53.97
2019-02-19T14:18:19.064Z,54.16
2019-02-19T14:21:06.369Z,54.60
2019-02-19T14:23:46.508Z,54.38
2019-02-19T14:26:17.785Z,54.53
2019-02-19T14:28:57.944Z,55.20
2019-02-19T14:31:44.477Z,55.22
2019-02-19T14:34:15.740Z,55.52
2019-02-19T14:36:49.782Z,55.52
2019-02-19T14:39:23.976Z,55.92
2019-02-19T14:41:58.135Z,56.56
2019-02-19T14:44:31.981Z,56.60
2019-02-19T14:47:03.203Z,57.46
2019-02-19T14:49:47.622Z,57.78
2019-02-19T14:52:27.652Z,58.48
2019-02-19T14:55:07.846Z,59.17
2019-02-19T14:57:41.912Z,59.41
2019-02-19T15:00:28.347Z,59.98
2019-02-19T15:03:02.390Z,60.45
2019-02-19T15:05:39.978Z,60.99
2019-02-19T15:08:27.330Z,61.29
2019-02-19T15:10:58.399Z,61.88
2019-02-19T15:13:41.603Z,62.37
2019-02-19T15:16:29.064Z,63.08
2019-02-19T15:19:02.816Z,63.41
2019-02-19T15:21:43.770Z,64.08
2019-02-19T15:24:24.381Z,63.87
2019-02-19T15:26:55.776Z,63.79
2019-02-19T15:29:43.353Z,63.94
2019-02-19T15:32:23.623Z,63.83
2019-02-19T15:35:03.802Z,64.10
2019-02-19T15:37:35.074Z,64.14
2019-02-19T15:40:23.558Z,64.36
2019-02-19T15:42:57.406Z,64.84
2019-02-19T15:45:30.997Z,64.49
2019-02-19T15:48:07.922Z,64.60
2019-02-19T15:50:48.281Z,64.51
2019-02-19T15:53:21.962Z,64.84
2019-02-19T15:55:53.170Z,64.38
2019-02-19T15:58:24.391Z,64.51
2019-02-19T16:01:11.842Z,64.41
2019-02-19T16:03:44.644Z,64.55
2019-02-19T16:06:15.776Z,64.61
2019-02-19T16:08:47.111Z,64.57
2019-02-19T16:11:18.295Z,64.60
2019-02-19T16:13:58.146Z,64.45
2019-02-19T16:16:38.346Z,65.04
2019-02-19T16:19:16.086Z,65.09
2019-02-19T16:22:05.505Z,65.02
2019-02-19T16:24:39.708Z,65.12
2019-02-19T16:27:22.834Z,65.04
2019-02-19T16:29:54.173Z,65.12
2019-02-19T16:32:43.272Z,65.35
2019-02-19T16:35:17.256Z,65.29
2019-02-19T16:37:54.113Z,65.73
2019-02-19T16:40:25.442Z,65.55
2019-02-19T16:42:56.499Z,65.61
2019-02-19T16:45:30.463Z,65.73
2019-02-19T16:48:01.595Z,65.68
2019-02-19T16:50:38.545Z,65.80
2019-02-19T16:53:12.434Z,65.84
2019-02-19T16:55:43.685Z,65.87
2019-02-19T16:58:17.688Z,66.15
2019-02-19T17:00:57.900Z,66.06
2019-02-19T17:03:29.061Z,66.14
2019-02-19T17:06:00.152Z,66.20
2019-02-19T17:08:43.573Z,66.42
2019-02-19T17:11:14.814Z,66.62
2019-02-19T17:14:02.339Z,66.74
2019-02-19T17:16:39.084Z,66.75
2019-02-19T17:19:26.157Z,66.78
2019-02-19T17:22:10.004Z,66.80
2019-02-19T17:24:47.440Z,66.96
2019-02-19T17:27:18.544Z,67.00
2019-02-19T17:29:58.974Z,67.08
2019-02-19T17:32:30.191Z,67.28
2019-02-19T17:35:06.893Z,67.49
2019-02-19T17:37:40.373Z,67.43
2019-02-19T17:40:26.416Z,67.43
2019-02-19T17:43:00.393Z,67.33
2019-02-19T17:45:43.189Z,67.25
2019-02-19T17:48:14.273Z,67.22
2019-02-19T17:51:00.822Z,67.23
2019-02-19T17:53:40.775Z,67.30
2019-02-19T17:56:14.650Z,67.10
2019-02-19T17:58:45.930Z,67.08
2019-02-19T18:01:19.986Z,67.23
2019-02-19T18:04:00.376Z,67.22
2019-02-19T18:06:31.523Z,67.31
2019-02-19T18:09:06.215Z,67.52
2019-02-19T18:11:37.339Z,67.62
2019-02-19T18:14:08.602Z,67.80
2019-02-19T18:16:39.736Z,67.82
2019-02-19T18:19:09.405Z,67.94
2019-02-19T18:21:39.273Z,68.11
2019-02-19T18:24:08.676Z,68.10
2019-02-19T18:26:38.344Z,68.26
2019-02-19T18:29:07.800Z,68.48
2019-02-19T18:31:37.431Z,68.74
2019-02-19T18:34:06.991Z,69.13
2019-02-19T18:36:37.054Z,69.83
2019-02-19T18:39:06.952Z,70.03
2019-02-19T18:41:37.031Z,70.56
2019-02-19T18:44:06.737Z,71.01
2019-02-19T18:46:36.199Z,71.06
2019-02-19T18:49:05.720Z,71.28
2019-02-19T18:51:35.305Z,71.72
2019-02-19T18:54:04.850Z,71.94
2019-02-19T18:56:34.307Z,72.03
2019-02-19T18:59:04.049Z,71.97
2019-02-19T19:01:33.593Z,72.00
2019-02-19T19:04:03.267Z,72.12
2019-02-19T19:06:32.743Z,72.34
2019-02-19T19:09:02.437Z,72.34
2019-02-19T19:11:31.928Z,72.52
2019-02-19T19:14:01.662Z,72.47
2019-02-19T19:16:31.339Z,72.48
2019-02-19T19:19:00.815Z,72.51
2019-02-19T19:21:30.868Z,72.45
2019-02-19T19:24:00.326Z,72.42
2019-02-19T19:26:29.892Z,72.36
2019-02-19T19:28:59.413Z,72.22
2019-02-19T19:31:33.570Z,72.23
2019-02-19T19:34:00.775Z,72.48
2019-02-19T19:36:30.245Z,72.17
2019-02-19T19:38:59.754Z,72.08
2019-02-19T19:41:31.218Z,71.82
2019-02-19T19:44:00.893Z,71.80
2019-02-19T19:46:30.558Z,71.95
2019-02-19T19:49:00.019Z,71.67
2019-02-19T19:51:30.266Z,71.54
2019-02-19T19:53:59.933Z,71.68
2019-02-19T19:56:29.557Z,71.52
2019-02-19T19:58:59.819Z,71.45
2019-02-19T20:01:30.669Z,71.41
2019-02-19T20:04:00.328Z,71.24
2019-02-19T20:06:29.817Z,71.06
2019-02-19T20:08:59.528Z,71.15
2019-02-19T20:11:29.050Z,71.15
2019-02-19T20:13:58.651Z,70.81
2019-02-19T20:16:28.111Z,71.05
2019-02-19T20:18:57.642Z,70.97
2019-02-19T20:21:27.313Z,71.00
2019-02-19T20:23:56.830Z,70.85
2019-02-19T20:26:26.437Z,70.75
2019-02-19T20:28:56.073Z,70.71
2019-02-19T20:31:26.134Z,70.57
2019-02-19T20:33:55.743Z,70.34
2019-02-19T20:36:25.219Z,70.10
2019-02-19T20:38:54.913Z,70.23
2019-02-19T20:41:25.866Z,70.04
2019-02-19T20:43:56.014Z,70.15
2019-02-19T20:46:28.524Z,70.22
2019-02-19T20:48:58.699Z,69.93
2019-02-19T20:51:36.153Z,69.78
2019-02-19T20:53:59.469Z,69.80
2019-02-19T20:56:29.433Z,69.56
2019-02-19T20:58:58.927Z,69.35
2019-02-19T21:01:28.468Z,69.21
2019-02-19T21:03:57.915Z,69.12
2019-02-19T21:06:27.646Z,69.39
2019-02-19T21:08:57.117Z,69.11
2019-02-19T21:11:27.669Z,69.41
2019-02-19T21:13:57.457Z,69.16
2019-02-19T21:16:27.073Z,69.36
2019-02-19T21:18:56.846Z,69.61
2019-02-19T21:21:26.482Z,69.23
2019-02-19T21:23:56.081Z,69.46
2019-02-19T21:26:26.009Z,69.60
2019-02-19T21:28:55.685Z,69.28
2019-02-19T21:31:25.155Z,69.50
2019-02-19T21:33:54.731Z,69.33
2019-02-19T21:36:24.176Z,69.30
2019-02-19T21:38:54.273Z,69.57
2019-02-19T21:41:23.766Z,69.35
2019-02-19T21:43:53.288Z,69.58
2019-02-19T21:46:22.737Z,69.67
2019-02-19T21:48:52.362Z,69.66
2019-02-19T21:51:22.907Z,69.79
2019-02-19T21:53:52.659Z,69.70
2019-02-19T21:56:22.632Z,69.77
2019-02-19T21:58:53.365Z,69.87
2019-02-19T22:01:22.856Z,69.87
2019-02-19T22:03:52.505Z,69.67
2019-02-19T22:06:22.183Z,69.70
2019-02-19T22:08:52.144Z,69.73
2019-02-19T22:11:21.887Z,69.67
2019-02-19T22:13:51.747Z,69.73
2019-02-19T22:16:21.385Z,69.75
2019-02-19T22:18:51.202Z,69.95
2019-02-19T22:21:22.428Z,70.15
2019-02-19T22:23:51.961Z,70.20
2019-02-19T22:26:21.474Z,70.14
2019-02-19T22:28:51.145Z,70.13
2019-02-19T22:31:20.838Z,70.10
2019-02-19T22:33:50.486Z,70.25
2019-02-19T22:36:20.083Z,70.55
2019-02-19T22:38:49.516Z,70.06
2019-02-19T22:41:19.070Z,70.03
2019-02-19T22:43:48.609Z,70.19
2019-02-19T22:46:18.112Z,70.13
2019-02-19T22:48:47.663Z,70.17
2019-02-19T22:51:17.060Z,70.30
2019-02-19T22:54:03.564Z,70.24
2019-02-19T22:56:34.795Z,70.31
2019-02-19T22:59:04.442Z,70.09
2019-02-19T23:01:38.432Z,70.20
2019-02-19T23:04:07.910Z,70.17
2019-02-19T23:06:37.498Z,70.16
2019-02-19T23:09:07.386Z,70.37
2019-02-19T23:11:36.783Z,70.35
2019-02-19T23:14:06.243Z,70.28
2019-02-19T23:16:35.809Z,70.39
2019-02-19T23:19:05.268Z,70.40
2019-02-19T23:21:34.752Z,70.44
2019-02-19T23:24:04.245Z,70.22
2019-02-19T23:26:33.787Z,70.33
2019-02-19T23:29:03.249Z,70.56
2019-02-19T23:31:32.778Z,71.00
2019-02-19T23:34:02.659Z,70.82
2019-02-19T23:36:36.594Z,70.77
2019-02-19T23:39:06.643Z,70.71
2019-02-19T23:41:36.206Z,70.85
2019-02-19T23:44:05.610Z,71.17
2019-02-19T23:46:35.070Z,71.19
2019-02-19T23:49:04.622Z,71.45
2019-02-19T23:51:34.070Z,71.37
2019-02-19T23:54:03.844Z,71.62
2019-02-19T23:56:33.251Z,71.69
2019-02-19T23:59:02.854Z,71.84
